sensor_id;sensor_type;location;lat;lon;timestamp;pressure;altitude;pressure_sealevel;temperature;humidity
77011;BME280;65945;53.148;17.956;2023-04-21T00:00:53;101751.59;;;7.99;64.43
77011;BME280;65945;53.148;17.956;2023-04-21T00:03:20;101753.14;;;7.93;64.37
77011;BME280;65945;53.148;17.956;2023-04-21T00:05:49;101748.16;;;7.86;64.78
77011;BME280;65945;53.148;17.956;2023-04-21T00:08:17;101748.21;;;7.79;64.82
77011;BME280;65945;53.148;17.956;2023-04-21T00:10:44;101749.20;;;7.73;64.92
77011;BME280;65945;53.148;17.956;2023-04-21T00:13:12;101751.16;;;7.67;65.03
77011;BME280;65945;53.148;17.956;2023-04-21T00:15:39;101751.96;;;7.60;65.10
77011;BME280;65945;53.148;17.956;2023-04-21T00:18:06;101748.23;;;7.54;65.20
77011;BME280;65945;53.148;17.956;2023-04-21T00:20:32;101745.30;;;7.47;65.56
77011;BME280;65945;53.148;17.956;2023-04-21T00:22:59;101751.10;;;7.41;65.70
77011;BME280;65945;53.148;17.956;2023-04-21T00:25:26;101756.55;;;7.37;66.21
77011;BME280;65945;53.148;17.956;2023-04-21T00:27:52;101748.92;;;7.34;66.11
77011;BME280;65945;53.148;17.956;2023-04-21T00:30:19;101749.49;;;7.30;65.87
77011;BME280;65945;53.148;17.956;2023-04-21T00:32:46;101745.89;;;7.25;66.07
77011;BME280;65945;53.148;17.956;2023-04-21T00:35:12;101743.39;;;7.20;66.31
77011;BME280;65945;53.148;17.956;2023-04-21T00:37:39;101741.70;;;7.15;66.12
77011;BME280;65945;53.148;17.956;2023-04-21T00:40:08;101740.32;;;7.10;66.26
77011;BME280;65945;53.148;17.956;2023-04-21T00:42:35;101741.48;;;7.05;66.43
77011;BME280;65945;53.148;17.956;2023-04-21T00:45:03;101737.30;;;7.00;66.66
77011;BME280;65945;53.148;17.956;2023-04-21T00:47:30;101744.70;;;6.95;66.62
77011;BME280;65945;53.148;17.956;2023-04-21T00:49:57;101742.05;;;6.89;66.75
77011;BME280;65945;53.148;17.956;2023-04-21T00:52:25;101743.36;;;6.83;67.30
77011;BME280;65945;53.148;17.956;2023-04-21T00:54:52;101742.30;;;6.77;67.20
77011;BME280;65945;53.148;17.956;2023-04-21T00:57:19;101743.77;;;6.73;67.44
77011;BME280;65945;53.148;17.956;2023-04-21T00:59:47;101740.73;;;6.69;67.71
77011;BME280;65945;53.148;17.956;2023-04-21T01:02:15;101743.25;;;6.65;67.75
77011;BME280;65945;53.148;17.956;2023-04-21T01:04:43;101741.36;;;6.61;67.55
77011;BME280;65945;53.148;17.956;2023-04-21T01:07:11;101740.36;;;6.58;67.75
77011;BME280;65945;53.148;17.956;2023-04-21T01:09:38;101737.35;;;6.57;67.74
77011;BME280;65945;53.148;17.956;2023-04-21T01:12:07;101743.20;;;6.57;67.79
77011;BME280;65945;53.148;17.956;2023-04-21T01:14:36;101740.52;;;6.56;67.72
77011;BME280;65945;53.148;17.956;2023-04-21T01:17:04;101739.88;;;6.53;68.07
77011;BME280;65945;53.148;17.956;2023-04-21T01:19:32;101738.82;;;6.51;67.85
77011;BME280;65945;53.148;17.956;2023-04-21T01:22:05;101741.02;;;6.49;68.59
77011;BME280;65945;53.148;17.956;2023-04-21T01:24:37;101743.41;;;6.47;68.22
77011;BME280;65945;53.148;17.956;2023-04-21T01:27:11;101745.29;;;6.43;68.46
77011;BME280;65945;53.148;17.956;2023-04-21T01:29:40;101744.61;;;6.36;68.44
77011;BME280;65945;53.148;17.956;2023-04-21T01:32:11;101739.09;;;6.30;68.31
77011;BME280;65945;53.148;17.956;2023-04-21T01:34:39;101741.03;;;6.24;69.09
77011;BME280;65945;53.148;17.956;2023-04-21T01:37:08;101740.04;;;6.17;69.00
77011;BME280;65945;53.148;17.956;2023-04-21T01:39:39;101740.68;;;6.11;69.63
77011;BME280;65945;53.148;17.956;2023-04-21T01:42:06;101738.36;;;6.04;69.35
77011;BME280;65945;53.148;17.956;2023-04-21T01:44:33;101735.95;;;5.97;69.38
77011;BME280;65945;53.148;17.956;2023-04-21T01:47:00;101736.70;;;5.91;69.75
77011;BME280;65945;53.148;17.956;2023-04-21T01:49:27;101740.13;;;5.86;70.11
77011;BME280;65945;53.148;17.956;2023-04-21T01:51:54;101740.04;;;5.81;70.34
77011;BME280;65945;53.148;17.956;2023-04-21T01:54:20;101737.66;;;5.77;69.94
77011;BME280;65945;53.148;17.956;2023-04-21T01:56:47;101738.13;;;5.71;70.00
77011;BME280;65945;53.148;17.956;2023-04-21T01:59:15;101738.38;;;5.65;69.95
77011;BME280;65945;53.148;17.956;2023-04-21T02:01:41;101739.05;;;5.59;70.42
77011;BME280;65945;53.148;17.956;2023-04-21T02:04:08;101740.46;;;5.53;70.59
77011;BME280;65945;53.148;17.956;2023-04-21T02:06:35;101736.39;;;5.47;70.50
77011;BME280;65945;53.148;17.956;2023-04-21T02:09:01;101738.32;;;5.42;70.50
77011;BME280;65945;53.148;17.956;2023-04-21T02:11:30;101744.03;;;5.37;70.88
77011;BME280;65945;53.148;17.956;2023-04-21T02:13:57;101742.70;;;5.32;70.80
77011;BME280;65945;53.148;17.956;2023-04-21T02:16:24;101743.57;;;5.28;71.04
77011;BME280;65945;53.148;17.956;2023-04-21T02:18:55;101737.06;;;5.23;71.37
77011;BME280;65945;53.148;17.956;2023-04-21T02:21:26;101735.91;;;5.19;70.88
77011;BME280;65945;53.148;17.956;2023-04-21T02:23:53;101736.70;;;5.15;71.64
77011;BME280;65945;53.148;17.956;2023-04-21T02:26:20;101738.04;;;5.11;71.44
77011;BME280;65945;53.148;17.956;2023-04-21T02:28:47;101733.80;;;5.07;71.70
77011;BME280;65945;53.148;17.956;2023-04-21T02:31:16;101734.52;;;5.05;71.94
77011;BME280;65945;53.148;17.956;2023-04-21T02:33:44;101736.15;;;5.02;71.59
77011;BME280;65945;53.148;17.956;2023-04-21T02:36:12;101736.66;;;5.00;72.10
77011;BME280;65945;53.148;17.956;2023-04-21T02:38:38;101735.48;;;4.96;72.13
77011;BME280;65945;53.148;17.956;2023-04-21T02:41:05;101743.17;;;4.93;72.30
77011;BME280;65945;53.148;17.956;2023-04-21T02:43:33;101738.66;;;4.89;72.45
77011;BME280;65945;53.148;17.956;2023-04-21T02:46:08;101731.34;;;4.86;72.80
77011;BME280;65945;53.148;17.956;2023-04-21T02:48:35;101730.90;;;4.82;72.71
77011;BME280;65945;53.148;17.956;2023-04-21T02:51:02;101727.29;;;4.79;72.17
77011;BME280;65945;53.148;17.956;2023-04-21T02:53:30;101732.80;;;4.75;72.67
77011;BME280;65945;53.148;17.956;2023-04-21T02:55:57;101735.30;;;4.70;72.40
77011;BME280;65945;53.148;17.956;2023-04-21T02:58:23;101734.19;;;4.65;72.65
77011;BME280;65945;53.148;17.956;2023-04-21T03:00:50;101728.31;;;4.60;72.87
77011;BME280;65945;53.148;17.956;2023-04-21T03:03:17;101721.95;;;4.57;73.33
77011;BME280;65945;53.148;17.956;2023-04-21T03:05:43;101728.45;;;4.54;73.34
77011;BME280;65945;53.148;17.956;2023-04-21T03:08:10;101727.45;;;4.50;73.45
77011;BME280;65945;53.148;17.956;2023-04-21T03:10:37;101723.67;;;4.45;73.65
77011;BME280;65945;53.148;17.956;2023-04-21T03:13:04;101728.96;;;4.42;73.78
77011;BME280;65945;53.148;17.956;2023-04-21T03:15:31;101731.02;;;4.37;74.11
77011;BME280;65945;53.148;17.956;2023-04-21T03:17:57;101726.95;;;4.34;74.21
77011;BME280;65945;53.148;17.956;2023-04-21T03:20:25;101724.54;;;4.30;74.11
77011;BME280;65945;53.148;17.956;2023-04-21T03:22:52;101731.52;;;4.27;74.08
77011;BME280;65945;53.148;17.956;2023-04-21T03:25:19;101728.73;;;4.24;73.95
77011;BME280;65945;53.148;17.956;2023-04-21T03:27:46;101732.44;;;4.20;73.98
77011;BME280;65945;53.148;17.956;2023-04-21T03:30:12;101727.39;;;4.17;74.06
77011;BME280;65945;53.148;17.956;2023-04-21T03:32:39;101725.35;;;4.15;74.10
77011;BME280;65945;53.148;17.956;2023-04-21T03:35:06;101726.10;;;4.13;74.33
77011;BME280;65945;53.148;17.956;2023-04-21T03:37:34;101724.83;;;4.09;74.16
77011;BME280;65945;53.148;17.956;2023-04-21T03:40:00;101723.42;;;4.07;74.41
77011;BME280;65945;53.148;17.956;2023-04-21T03:42:27;101724.17;;;4.05;74.36
77011;BME280;65945;53.148;17.956;2023-04-21T03:45:00;101724.20;;;4.03;74.43
77011;BME280;65945;53.148;17.956;2023-04-21T03:47:27;101724.32;;;4.01;74.56
77011;BME280;65945;53.148;17.956;2023-04-21T03:49:54;101724.02;;;4.00;74.67
77011;BME280;65945;53.148;17.956;2023-04-21T03:52:21;101723.50;;;3.99;74.50
77011;BME280;65945;53.148;17.956;2023-04-21T03:54:47;101721.92;;;3.97;74.47
77011;BME280;65945;53.148;17.956;2023-04-21T03:57:14;101718.60;;;3.96;74.83
77011;BME280;65945;53.148;17.956;2023-04-21T03:59:41;101717.82;;;3.95;74.92
77011;BME280;65945;53.148;17.956;2023-04-21T04:02:08;101717.39;;;3.95;74.92
77011;BME280;65945;53.148;17.956;2023-04-21T04:04:35;101720.26;;;3.96;74.77
77011;BME280;65945;53.148;17.956;2023-04-21T04:07:01;101723.00;;;3.96;74.83
77011;BME280;65945;53.148;17.956;2023-04-21T04:09:28;101722.32;;;3.96;74.82
77011;BME280;65945;53.148;17.956;2023-04-21T04:11:55;101725.85;;;3.97;75.04
77011;BME280;65945;53.148;17.956;2023-04-21T04:14:21;101724.14;;;3.99;75.11
77011;BME280;65945;53.148;17.956;2023-04-21T04:16:48;101724.08;;;4.00;75.33
77011;BME280;65945;53.148;17.956;2023-04-21T04:19:14;101721.13;;;4.03;75.48
77011;BME280;65945;53.148;17.956;2023-04-21T04:21:41;101724.53;;;4.06;75.18
77011;BME280;65945;53.148;17.956;2023-04-21T04:24:08;101728.14;;;4.10;75.49
77011;BME280;65945;53.148;17.956;2023-04-21T04:26:36;101730.17;;;4.15;75.30
77011;BME280;65945;53.148;17.956;2023-04-21T04:29:05;101731.21;;;4.20;75.46
77011;BME280;65945;53.148;17.956;2023-04-21T04:31:35;101731.32;;;4.25;75.56
77011;BME280;65945;53.148;17.956;2023-04-21T04:34:03;101726.56;;;4.30;75.50
77011;BME280;65945;53.148;17.956;2023-04-21T04:36:30;101720.56;;;4.36;75.35
77011;BME280;65945;53.148;17.956;2023-04-21T04:38:56;101718.11;;;4.41;75.40
77011;BME280;65945;53.148;17.956;2023-04-21T04:41:24;101723.28;;;4.47;75.67
77011;BME280;65945;53.148;17.956;2023-04-21T04:43:51;101720.48;;;4.55;75.74
77011;BME280;65945;53.148;17.956;2023-04-21T04:46:18;101720.34;;;4.62;75.29
77011;BME280;65945;53.148;17.956;2023-04-21T04:48:46;101722.58;;;4.70;75.06
77011;BME280;65945;53.148;17.956;2023-04-21T04:51:12;101721.37;;;4.78;74.86
77011;BME280;65945;53.148;17.956;2023-04-21T04:53:39;101722.67;;;4.86;75.16
77011;BME280;65945;53.148;17.956;2023-04-21T04:56:05;101724.48;;;4.96;74.82
77011;BME280;65945;53.148;17.956;2023-04-21T04:58:32;101722.95;;;5.05;74.90
77011;BME280;65945;53.148;17.956;2023-04-21T05:01:09;101722.02;;;5.14;74.58
77011;BME280;65945;53.148;17.956;2023-04-21T05:03:36;101720.91;;;5.25;74.60
77011;BME280;65945;53.148;17.956;2023-04-21T05:06:03;101720.02;;;5.37;74.41
77011;BME280;65945;53.148;17.956;2023-04-21T05:08:29;101722.28;;;5.49;74.36
77011;BME280;65945;53.148;17.956;2023-04-21T05:10:56;101724.06;;;5.63;74.14
77011;BME280;65945;53.148;17.956;2023-04-21T05:13:23;101724.63;;;5.77;73.99
77011;BME280;65945;53.148;17.956;2023-04-21T05:15:56;101725.14;;;5.89;73.76
77011;BME280;65945;53.148;17.956;2023-04-21T05:18:23;101730.54;;;6.02;73.61
77011;BME280;65945;53.148;17.956;2023-04-21T05:20:50;101732.41;;;6.15;73.38
77011;BME280;65945;53.148;17.956;2023-04-21T05:23:16;101731.38;;;6.29;73.23
77011;BME280;65945;53.148;17.956;2023-04-21T05:25:43;101733.89;;;6.44;73.03
77011;BME280;65945;53.148;17.956;2023-04-21T05:28:09;101730.71;;;6.59;72.49
77011;BME280;65945;53.148;17.956;2023-04-21T05:30:36;101736.52;;;6.75;72.67
77011;BME280;65945;53.148;17.956;2023-04-21T05:33:03;101734.04;;;6.91;72.20
77011;BME280;65945;53.148;17.956;2023-04-21T05:35:30;101736.63;;;7.09;71.95
77011;BME280;65945;53.148;17.956;2023-04-21T05:37:56;101737.56;;;7.26;71.06
77011;BME280;65945;53.148;17.956;2023-04-21T05:40:23;101737.40;;;7.44;70.54
77011;BME280;65945;53.148;17.956;2023-04-21T05:42:49;101738.61;;;7.62;70.19
77011;BME280;65945;53.148;17.956;2023-04-21T05:45:16;101735.34;;;7.80;69.79
77011;BME280;65945;53.148;17.956;2023-04-21T05:47:42;101734.64;;;7.97;69.08
77011;BME280;65945;53.148;17.956;2023-04-21T05:50:09;101733.29;;;8.14;69.00
77011;BME280;65945;53.148;17.956;2023-04-21T05:52:36;101733.91;;;8.33;68.19
77011;BME280;65945;53.148;17.956;2023-04-21T05:55:03;101735.42;;;8.52;67.40
77011;BME280;65945;53.148;17.956;2023-04-21T05:57:30;101733.37;;;8.71;66.31
77011;BME280;65945;53.148;17.956;2023-04-21T05:59:57;101732.08;;;8.89;64.85
77011;BME280;65945;53.148;17.956;2023-04-21T06:02:23;101734.61;;;9.06;63.36
77011;BME280;65945;53.148;17.956;2023-04-21T06:04:50;101736.73;;;9.19;62.88
77011;BME280;65945;53.148;17.956;2023-04-21T06:07:16;101736.59;;;9.32;62.39
77011;BME280;65945;53.148;17.956;2023-04-21T06:09:48;101736.17;;;9.43;63.06
77011;BME280;65945;53.148;17.956;2023-04-21T06:12:15;101734.98;;;9.55;62.65
77011;BME280;65945;53.148;17.956;2023-04-21T06:14:42;101726.97;;;9.65;61.12
77011;BME280;65945;53.148;17.956;2023-04-21T06:17:08;101730.63;;;9.74;61.42
77011;BME280;65945;53.148;17.956;2023-04-21T06:19:37;101724.73;;;9.84;61.37
77011;BME280;65945;53.148;17.956;2023-04-21T06:22:07;101725.48;;;9.93;61.10
77011;BME280;65945;53.148;17.956;2023-04-21T06:24:34;101725.79;;;10.03;60.66
77011;BME280;65945;53.148;17.956;2023-04-21T06:27:00;101726.98;;;10.12;60.96
77011;BME280;65945;53.148;17.956;2023-04-21T06:29:27;101723.58;;;10.24;61.10
77011;BME280;65945;53.148;17.956;2023-04-21T06:31:53;101725.65;;;10.36;59.83
77011;BME280;65945;53.148;17.956;2023-04-21T06:34:20;101727.30;;;10.48;60.81
77011;BME280;65945;53.148;17.956;2023-04-21T06:36:46;101724.86;;;10.62;60.01
77011;BME280;65945;53.148;17.956;2023-04-21T06:39:13;101726.45;;;10.75;60.90
77011;BME280;65945;53.148;17.956;2023-04-21T06:41:40;101728.13;;;10.88;58.85
77011;BME280;65945;53.148;17.956;2023-04-21T06:44:06;101727.68;;;11.00;60.12
77011;BME280;65945;53.148;17.956;2023-04-21T06:46:33;101726.75;;;11.15;58.20
77011;BME280;65945;53.148;17.956;2023-04-21T06:48:59;101724.73;;;11.29;58.52
77011;BME280;65945;53.148;17.956;2023-04-21T06:51:26;101721.42;;;11.43;59.58
77011;BME280;65945;53.148;17.956;2023-04-21T06:53:52;101724.95;;;11.60;58.29
77011;BME280;65945;53.148;17.956;2023-04-21T06:56:19;101720.67;;;11.75;57.10
77011;BME280;65945;53.148;17.956;2023-04-21T06:58:46;101722.00;;;11.92;56.02
77011;BME280;65945;53.148;17.956;2023-04-21T07:01:13;101719.94;;;12.03;53.84
77011;BME280;65945;53.148;17.956;2023-04-21T07:03:39;101716.89;;;12.11;51.37
77011;BME280;65945;53.148;17.956;2023-04-21T07:06:06;101714.52;;;12.21;52.19
77011;BME280;65945;53.148;17.956;2023-04-21T07:08:33;101714.72;;;12.32;51.37
77011;BME280;65945;53.148;17.956;2023-04-21T07:10:59;101715.32;;;12.44;51.67
77011;BME280;65945;53.148;17.956;2023-04-21T07:13:26;101716.80;;;12.59;51.01
77011;BME280;65945;53.148;17.956;2023-04-21T07:15:53;101715.23;;;12.71;50.29
77011;BME280;65945;53.148;17.956;2023-04-21T07:18:20;101711.61;;;12.83;49.78
77011;BME280;65945;53.148;17.956;2023-04-21T07:20:46;101717.84;;;12.94;49.24
77011;BME280;65945;53.148;17.956;2023-04-21T07:23:13;101716.52;;;13.03;48.98
77011;BME280;65945;53.148;17.956;2023-04-21T07:25:39;101715.33;;;13.12;49.29
77011;BME280;65945;53.148;17.956;2023-04-21T07:28:06;101715.08;;;13.22;48.46
77011;BME280;65945;53.148;17.956;2023-04-21T07:30:33;101715.36;;;13.30;47.55
77011;BME280;65945;53.148;17.956;2023-04-21T07:32:59;101711.27;;;13.38;48.99
77011;BME280;65945;53.148;17.956;2023-04-21T07:35:26;101714.08;;;13.50;49.60
77011;BME280;65945;53.148;17.956;2023-04-21T07:37:53;101708.77;;;13.67;48.36
77011;BME280;65945;53.148;17.956;2023-04-21T07:40:19;101708.44;;;13.81;47.80
77011;BME280;65945;53.148;17.956;2023-04-21T07:42:46;101708.72;;;13.92;45.89
77011;BME280;65945;53.148;17.956;2023-04-21T07:45:12;101702.92;;;13.97;45.62
77011;BME280;65945;53.148;17.956;2023-04-21T07:47:39;101704.42;;;14.05;44.83
77011;BME280;65945;53.148;17.956;2023-04-21T07:50:06;101704.67;;;14.15;45.19
77011;BME280;65945;53.148;17.956;2023-04-21T07:52:33;101706.65;;;14.24;44.70
77011;BME280;65945;53.148;17.956;2023-04-21T07:55:00;101704.98;;;14.30;45.15
77011;BME280;65945;53.148;17.956;2023-04-21T07:57:26;101702.45;;;14.37;45.02
77011;BME280;65945;53.148;17.956;2023-04-21T07:59:53;101696.02;;;14.49;46.66
77011;BME280;65945;53.148;17.956;2023-04-21T08:02:19;101692.42;;;14.64;46.83
77011;BME280;65945;53.148;17.956;2023-04-21T08:04:46;101693.55;;;14.80;45.77
77011;BME280;65945;53.148;17.956;2023-04-21T08:07:13;101694.62;;;14.91;42.75
77011;BME280;65945;53.148;17.956;2023-04-21T08:09:40;101694.39;;;14.98;44.06
77011;BME280;65945;53.148;17.956;2023-04-21T08:12:07;101693.75;;;15.08;44.32
77011;BME280;65945;53.148;17.956;2023-04-21T08:14:33;101689.66;;;15.20;43.80
77011;BME280;65945;53.148;17.956;2023-04-21T08:17:00;101689.98;;;15.31;43.15
77011;BME280;65945;53.148;17.956;2023-04-21T08:19:27;101689.89;;;15.35;41.90
77011;BME280;65945;53.148;17.956;2023-04-21T08:21:53;101693.55;;;15.44;41.25
77011;BME280;65945;53.148;17.956;2023-04-21T08:24:20;101690.88;;;15.50;40.35
77011;BME280;65945;53.148;17.956;2023-04-21T08:26:47;101688.17;;;15.49;40.16
77011;BME280;65945;53.148;17.956;2023-04-21T08:29:13;101690.56;;;15.50;40.53
77011;BME280;65945;53.148;17.956;2023-04-21T08:31:40;101693.39;;;15.52;40.59
77011;BME280;65945;53.148;17.956;2023-04-21T08:34:07;101688.83;;;15.61;41.14
77011;BME280;65945;53.148;17.956;2023-04-21T08:36:33;101686.72;;;15.71;39.60
77011;BME280;65945;53.148;17.956;2023-04-21T08:39:00;101679.30;;;15.84;39.59
77011;BME280;65945;53.148;17.956;2023-04-21T08:41:27;101675.58;;;15.97;39.07
77011;BME280;65945;53.148;17.956;2023-04-21T08:43:54;101675.33;;;16.10;39.78
77011;BME280;65945;53.148;17.956;2023-04-21T08:46:21;101676.95;;;16.20;39.23
77011;BME280;65945;53.148;17.956;2023-04-21T08:48:48;101675.21;;;16.27;38.61
77011;BME280;65945;53.148;17.956;2023-04-21T08:51:21;101674.42;;;16.33;39.27
77011;BME280;65945;53.148;17.956;2023-04-21T08:53:48;101675.46;;;16.40;38.20
77011;BME280;65945;53.148;17.956;2023-04-21T08:56:15;101674.42;;;16.47;36.73
77011;BME280;65945;53.148;17.956;2023-04-21T08:58:42;101677.05;;;16.42;35.75
77011;BME280;65945;53.148;17.956;2023-04-21T09:01:08;101672.32;;;16.41;35.92
77011;BME280;65945;53.148;17.956;2023-04-21T09:03:35;101672.14;;;16.39;35.84
77011;BME280;65945;53.148;17.956;2023-04-21T09:06:04;101669.08;;;16.46;34.61
77011;BME280;65945;53.148;17.956;2023-04-21T09:08:32;101665.08;;;16.51;32.96
77011;BME280;65945;53.148;17.956;2023-04-21T09:10:59;101669.83;;;16.54;32.28
77011;BME280;65945;53.148;17.956;2023-04-21T09:13:31;101668.10;;;16.58;33.37
77011;BME280;65945;53.148;17.956;2023-04-21T09:15:59;101669.55;;;16.62;34.41
77011;BME280;65945;53.148;17.956;2023-04-21T09:18:27;101668.82;;;16.66;34.82
77011;BME280;65945;53.148;17.956;2023-04-21T09:21:26;101664.88;;;16.76;33.53
77011;BME280;65945;53.148;17.956;2023-04-21T09:23:53;101664.20;;;16.84;32.95
77011;BME280;65945;53.148;17.956;2023-04-21T09:26:21;101664.06;;;16.85;32.17
77011;BME280;65945;53.148;17.956;2023-04-21T09:28:49;101659.34;;;16.79;31.86
77011;BME280;65945;53.148;17.956;2023-04-21T09:31:18;101653.64;;;16.74;32.06
77011;BME280;65945;53.148;17.956;2023-04-21T09:33:52;101657.65;;;16.73;32.16
77011;BME280;65945;53.148;17.956;2023-04-21T09:36:20;101651.36;;;16.75;32.65
77011;BME280;65945;53.148;17.956;2023-04-21T09:38:58;101651.77;;;16.79;32.66
77011;BME280;65945;53.148;17.956;2023-04-21T09:41:25;101656.77;;;16.83;31.27
77011;BME280;65945;53.148;17.956;2023-04-21T09:43:51;101656.86;;;16.83;31.61
77011;BME280;65945;53.148;17.956;2023-04-21T09:46:19;101650.16;;;16.86;32.12
77011;BME280;65945;53.148;17.956;2023-04-21T09:48:49;101654.21;;;16.89;31.95
77011;BME280;65945;53.148;17.956;2023-04-21T09:51:18;101648.37;;;16.97;32.59
77011;BME280;65945;53.148;17.956;2023-04-21T09:53:46;101646.91;;;17.05;31.79
77011;BME280;65945;53.148;17.956;2023-04-21T09:56:15;101650.60;;;17.03;31.81
77011;BME280;65945;53.148;17.956;2023-04-21T09:58:49;101646.02;;;17.02;31.87
77011;BME280;65945;53.148;17.956;2023-04-21T10:01:18;101644.27;;;17.01;31.89
77011;BME280;65945;53.148;17.956;2023-04-21T10:03:47;101642.73;;;17.10;32.95
77011;BME280;65945;53.148;17.956;2023-04-21T10:06:14;101637.41;;;17.19;32.21
77011;BME280;65945;53.148;17.956;2023-04-21T10:08:41;101640.61;;;17.21;32.08
77011;BME280;65945;53.148;17.956;2023-04-21T10:11:09;101638.06;;;17.21;32.27
77011;BME280;65945;53.148;17.956;2023-04-21T10:13:36;101631.80;;;17.29;32.90
77011;BME280;65945;53.148;17.956;2023-04-21T10:16:05;101630.17;;;17.36;32.48
77011;BME280;65945;53.148;17.956;2023-04-21T10:18:37;101630.48;;;17.38;31.68
77011;BME280;65945;53.148;17.956;2023-04-21T10:21:07;101629.92;;;17.43;31.99
77011;BME280;65945;53.148;17.956;2023-04-21T10:23:40;101627.45;;;17.43;31.20
77011;BME280;65945;53.148;17.956;2023-04-21T10:26:16;101622.02;;;17.47;31.02
77011;BME280;65945;53.148;17.956;2023-04-21T10:28:55;101621.78;;;17.55;31.62
77011;BME280;65945;53.148;17.956;2023-04-21T10:31:30;101609.73;;;17.63;31.57
77011;BME280;65945;53.148;17.956;2023-04-21T10:36:34;101613.90;;;17.83;31.86
77011;BME280;65945;53.148;17.956;2023-04-21T10:39:07;101612.42;;;17.83;31.32
77011;BME280;65945;53.148;17.956;2023-04-21T10:41:34;101608.98;;;17.78;31.01
77011;BME280;65945;53.148;17.956;2023-04-21T10:44:15;101614.27;;;17.71;29.89
77011;BME280;65945;53.148;17.956;2023-04-21T10:46:47;101614.20;;;17.71;30.56
77011;BME280;65945;53.148;17.956;2023-04-21T10:49:25;101606.09;;;17.83;31.36
77011;BME280;65945;53.148;17.956;2023-04-21T10:54:25;101600.56;;;17.89;29.72
77011;BME280;65945;53.148;17.956;2023-04-21T10:56:53;101597.33;;;17.91;30.76
77011;BME280;65945;53.148;17.956;2023-04-21T10:59:21;101596.59;;;17.95;30.10
77011;BME280;65945;53.148;17.956;2023-04-21T11:01:48;101599.48;;;18.00;29.75
77011;BME280;65945;53.148;17.956;2023-04-21T11:04:18;101594.91;;;18.12;30.10
77011;BME280;65945;53.148;17.956;2023-04-21T11:07:12;101591.10;;;18.21;29.49
77011;BME280;65945;53.148;17.956;2023-04-21T11:09:40;101592.55;;;18.18;29.04
77011;BME280;65945;53.148;17.956;2023-04-21T11:12:10;101587.38;;;18.08;28.85
77011;BME280;65945;53.148;17.956;2023-04-21T11:14:40;101583.12;;;18.08;30.24
77011;BME280;65945;53.148;17.956;2023-04-21T11:17:11;101582.27;;;18.21;30.51
77011;BME280;65945;53.148;17.956;2023-04-21T11:19:39;101582.52;;;18.25;29.62
77011;BME280;65945;53.148;17.956;2023-04-21T11:22:06;101579.73;;;18.23;30.36
77011;BME280;65945;53.148;17.956;2023-04-21T11:24:33;101573.64;;;18.26;30.53
77011;BME280;65945;53.148;17.956;2023-04-21T11:26:59;101575.11;;;18.27;30.59
77011;BME280;65945;53.148;17.956;2023-04-21T11:29:27;101567.48;;;18.33;30.80
77011;BME280;65945;53.148;17.956;2023-04-21T11:31:56;101563.61;;;18.38;30.63
77011;BME280;65945;53.148;17.956;2023-04-21T11:34:25;101561.02;;;18.29;29.55
77011;BME280;65945;53.148;17.956;2023-04-21T11:36:51;101560.76;;;18.20;30.38
77011;BME280;65945;53.148;17.956;2023-04-21T11:39:20;101561.84;;;18.21;30.31
77011;BME280;65945;53.148;17.956;2023-04-21T11:41:48;101555.27;;;18.22;30.96
77011;BME280;65945;53.148;17.956;2023-04-21T11:46:58;101552.23;;;18.35;31.14
77011;BME280;65945;53.148;17.956;2023-04-21T11:49:26;101555.23;;;18.32;30.98
77011;BME280;65945;53.148;17.956;2023-04-21T11:51:55;101552.89;;;18.27;30.84
77011;BME280;65945;53.148;17.956;2023-04-21T11:54:22;101547.20;;;18.17;30.80
77011;BME280;65945;53.148;17.956;2023-04-21T11:56:50;101549.58;;;18.13;31.29
77011;BME280;65945;53.148;17.956;2023-04-21T11:59:21;101543.62;;;18.15;31.54
77011;BME280;65945;53.148;17.956;2023-04-21T12:01:51;101543.27;;;18.19;31.83
77011;BME280;65945;53.148;17.956;2023-04-21T12:04:23;101547.73;;;18.33;31.68
77011;BME280;65945;53.148;17.956;2023-04-21T12:07:00;101534.13;;;18.37;31.08
77011;BME280;65945;53.148;17.956;2023-04-21T12:09:28;101528.02;;;18.36;30.90
77011;BME280;65945;53.148;17.956;2023-04-21T12:11:56;101526.43;;;18.29;30.73
77011;BME280;65945;53.148;17.956;2023-04-21T12:14:25;101526.30;;;18.29;31.25
77011;BME280;65945;53.148;17.956;2023-04-21T12:16:56;101525.29;;;18.32;31.68
77011;BME280;65945;53.148;17.956;2023-04-21T12:19:37;101520.95;;;18.33;31.69
77011;BME280;65945;53.148;17.956;2023-04-21T12:22:15;101514.95;;;18.39;31.96
77011;BME280;65945;53.148;17.956;2023-04-21T12:24:44;101515.41;;;18.53;31.55
77011;BME280;65945;53.148;17.956;2023-04-21T12:27:11;101515.58;;;18.60;30.69
77011;BME280;65945;53.148;17.956;2023-04-21T12:29:38;101511.94;;;18.62;30.62
77011;BME280;65945;53.148;17.956;2023-04-21T12:32:05;101508.39;;;18.62;31.01
77011;BME280;65945;53.148;17.956;2023-04-21T12:34:32;101502.27;;;18.66;31.40
77011;BME280;65945;53.148;17.956;2023-04-21T12:36:58;101502.42;;;18.68;30.99
77011;BME280;65945;53.148;17.956;2023-04-21T12:39:25;101502.77;;;18.74;31.37
77011;BME280;65945;53.148;17.956;2023-04-21T12:41:52;101506.41;;;18.86;30.70
77011;BME280;65945;53.148;17.956;2023-04-21T12:44:18;101500.61;;;18.96;29.95
77011;BME280;65945;53.148;17.956;2023-04-21T12:46:45;101494.58;;;19.05;30.27
77011;BME280;65945;53.148;17.956;2023-04-21T12:49:14;101490.33;;;19.14;30.59
77011;BME280;65945;53.148;17.956;2023-04-21T12:51:42;101486.67;;;19.17;29.95
77011;BME280;65945;53.148;17.956;2023-04-21T12:54:10;101491.09;;;19.11;29.36
77011;BME280;65945;53.148;17.956;2023-04-21T12:56:38;101496.98;;;18.99;29.41